• Join FlightAware (Why Join?)
  • Login
  • US Flag 
08:35PM EDT


 

Airport Tracker/Info


-or-


 

Live Flight TrackerFlight Track Log ✈ N825TB ✈ 13-Sep-2013 ✈ KTMB - KPDK

Flight Track Log - Related Links

Times and Time Zones

All times are in EDT time to prevent confusion due to time zone crossing. See the N825TB flight status page for this flight to view local times or setup timezone preferences in your user account.

Time Position Orientation Groundspeed Altitude Reporting Facility
EDT Latitude Longitude Course Direction KTS MPH feet Rate Location/Type
07:48AM 25.6422 -80.4175 91° East 181 208 800  Level Miami Center
07:49AM 25.6414 -80.3644 91° East 217 250 2,700 2,520 Climbing Miami Center
07:51AM 25.7469 -80.3192 21° North 247 284 7,900 2,760 Climbing Miami Center
07:52AM 25.8283 -80.3283 354° North 263 303 11,000 2,940 Climbing Miami Center
07:53AM 25.9111 -80.3586 342° North 287 330 13,800 2,880 Climbing Miami Center
07:54AM 26.0167 -80.3964 342° North 325 374 16,800 2,700 Climbing Miami Center
07:55AM 26.1139 -80.4339 341° North 357 411 19,300 2,640 Climbing Miami Center
07:56AM 26.2194 -80.4717 342° North 373 429 22,100 2,700 Climbing Miami Center
07:57AM 26.3208 -80.5119 340° North 386 444 24,800 2,400 Climbing Miami Center
07:58AM 26.4181 -80.5475 342° North 397 457 26,900 2,100 Climbing Miami Center
07:59AM 26.5361 -80.5906 342° North 402 463 29,000 1,800 Climbing Miami Center
08:00AM 26.6394 -80.6286 342° North 421 484 30,600 1,740 Climbing Miami Center
08:01AM 26.7678 -80.6769 341° North 427 491 32,500 1,680 Climbing Miami Center
08:02AM 26.8753 -80.7178 341° North 432 497 34,000 1,500 Climbing Miami Center
08:03AM 26.9931 -80.7589 343° North 437 503 35,600 1,800 Climbing Miami Center
08:04AM 27.1131 -80.8003 343° North 437 503 37,600 1,800 Climbing Miami Center
08:05AM 27.2311 -80.8394 344° North 437 503 39,300 1,560 Climbing Miami Center
08:06AM 27.3531 -80.8808 343° North 432 497 40,800 840 Climbing Miami Center
08:07AM 27.4669 -80.9178 344° North 427 491 41,000 60 Climbing Miami Center
08:08AM 27.5847 -80.9594 343° North 427 491 41,000  Level Miami Center
08:09AM 27.7006 -80.9986 343° North 432 497 41,000  Level Miami Center
08:10AM 27.8142 -81.0403 342° North 438 504 41,000  Level Miami Center
08:11AM 27.9319 -81.0800 343° North 438 504 41,000  Level Miami Center
08:12AM 28.0372 -81.1192 342° North 438 504 41,000  Level Miami Center
08:13AM 28.1508 -81.1586 343° North 433 498 41,000  Level Miami Center
08:14AM 28.2767 -81.2011 343° North 433 498 41,000  Level Miami Center
08:15AM 28.3750 -81.2364 342° North 445 512 41,000  Level Jacksonville Center
08:16AM 28.4883 -81.2769 343° North 444 511 41,000  Level Jacksonville Center
08:17AM 28.6014 -81.3156 343° North 439 505 41,000  Level Jacksonville Center
08:18AM 28.7167 -81.3586 342° North 434 499 41,000  Level Jacksonville Center
08:19AM 28.8319 -81.3994 343° North 434 499 41,000  Level Jacksonville Center
08:20AM 28.9472 -81.4356 345° North 429 494 41,000  Level Jacksonville Center
08:21AM 29.0625 -81.4767 343° North 429 494 41,000  Level Jacksonville Center
08:22AM 29.1778 -81.5181 343° North 429 494 41,000  Level Jacksonville Center
08:23AM 29.2761 -81.5522 343° North 424 488 41,000  Level Jacksonville Center
08:24AM 29.3914 -81.5936 343° North 424 488 41,000  Level Jacksonville Center
08:25AM 29.5044 -81.6350 342° North 424 488 41,000  Level Jacksonville Center
08:26AM 29.6219 -81.6764 343° North 430 495 41,000  Level Jacksonville Center
08:27AM 29.7350 -81.7181 342° North 430 495 41,000  Level Jacksonville Center
08:28AM 29.8481 -81.7575 343° North 425 489 41,000  Level Jacksonville Center
08:29AM 29.9592 -81.7969 343° North 425 489 41,000  Level Jacksonville Center
08:30AM 30.0722 -81.8389 342° North 425 489 41,000  Level Jacksonville Center
08:31AM 30.1853 -81.8786 343° North 425 489 41,000  Level Jacksonville Center
08:32AM 30.2961 -81.9183 343° North 425 489 41,000  Level Jacksonville Center
08:33AM 30.4050 -81.9628 341° North 420 483 41,000  Level Jacksonville Center
08:34AM 30.5161 -82.0053 342° North 420 483 41,000  Level Jacksonville Center
08:35AM 30.6269 -82.0500 341° North 420 483 41,000  Level Jacksonville Center
08:36AM 30.7358 -82.0925 341° North 420 483 41,000  Level Jacksonville Center
08:37AM 30.8489 -82.1353 342° North 420 483 41,000  Level Jacksonville Center
08:38AM 30.9578 -82.1803 340° North 420 483 41,000 -60 Level Jacksonville Center
08:39AM 31.0708 -82.2231 342° North 420 483 40,900 -540 Descending Jacksonville Center
08:40AM 31.1900 -82.2758 339° North 420 483 40,000 -1,200 Descending Jacksonville Center
08:41AM 31.3031 -82.3189 342° North 420 483 38,500 -1,380 Descending Jacksonville Center
08:42AM 31.4158 -82.3644 341° North 426 490 37,300 -1,260 Descending Jacksonville Center
08:43AM 31.5331 -82.4100 342° North 426 490 36,000 -1,380 Descending Jacksonville Center
08:45AM 31.7347 -82.4956 340° North 422 486 33,500 -1,080 Descending Atlanta Center
08:46AM 31.8503 -82.5400 342° North 429 494 33,000 -300 Descending Atlanta Center
08:47AM 31.9697 -82.5919 340° North 435 501 33,000  Level Atlanta Center
08:48AM 32.0769 -82.6661 330° Northwest 440 506 33,000  Level Atlanta Center
08:49AM 32.1822 -82.7431 328° Northwest 446 513 33,000 -300 Level Atlanta Center
08:50AM 32.2853 -82.8228 327° Northwest 446 513 32,500 -1,140 Descending Atlanta Center
08:51AM 32.3883 -82.9025 327° Northwest 446 513 30,800 -1,800 Descending Atlanta Center
08:52AM 32.4933 -82.9775 329° Northwest 446 513 29,000 -1,920 Descending Atlanta Center
08:53AM 32.5942 -83.0575 326° Northwest 446 513 27,000 -2,040 Descending Atlanta Center
08:54AM 32.7014 -83.1353 329° Northwest 446 513 25,000 -2,100 Descending Atlanta Center
08:55AM 32.8000 -83.2111 327° Northwest 441 507 22,900 -2,100 Descending Atlanta Center
08:56AM 32.9006 -83.2892 327° Northwest 436 502 20,900 -2,100 Descending Atlanta Center
08:57AM 32.9950 -83.3603 328° Northwest 426 490 18,800 -2,340 Descending Atlanta Center
08:58AM 33.0956 -83.4414 326° Northwest 408 470 16,300 -2,220 Descending Atlanta Center
08:59AM 33.1772 -83.5078 326° Northwest 374 430 14,400 -1,980 Descending Atlanta Center
09:00AM 33.2589 -83.5669 329° Northwest 344 396 12,400 -1,500 Descending Atlanta Center
09:01AM 33.3217 -83.6161 327° Northwest 327 376 11,400 -720 Descending Atlanta Center
09:02AM 33.3886 -83.6681 327° Northwest 305 351 11,000 -540 Descending Atlanta Center
09:03AM 33.4639 -83.7100 335° Northwest 290 334 10,400 -1,020 Descending Atlanta Center
09:04AM 33.5372 -83.7447 338° Northwest 285 328 9,000 -1,500 Descending Atlanta Center
09:05AM 33.6103 -83.7769 340° North 280 322 7,400 -1,620 Descending Atlanta Center
09:06AM 33.6772 -83.8067 340° North 268 308 5,800 -1,620 Descending Atlanta Center
09:07AM 33.7439 -83.8339 341° North 263 303 4,200 -900 Descending Atlanta Center
09:08AM 33.8150 -83.8689 338° Northwest 257 296 4,000 -180 Descending Atlanta Center
09:09AM 33.9000 -83.9167 335° Northwest 261 300 3,800 -480 Descending Atlanta TRACON
09:10AM 33.8833 -84.0000 256° West 268 308 3,000 -480 Descending Atlanta TRACON
09:11AM 33.8833 -84.0833 270° West 246 283 3,000  Level Atlanta TRACON
09:12AM 33.8667 -84.1667 256° West 251 289 3,000  Level Atlanta TRACON
09:13AM 33.8667 -84.2333 270° West 200 230 3,000 -240 Level Atlanta TRACON
09:14AM 33.8333 -84.2833 231° Southwest 161 185 2,600 -660 Descending Atlanta TRACON
09:15AM 33.8333 -84.3167 270° West 129 148 1,700 -900 Descending Atlanta TRACON
09:17AM 33.8667 -84.3000 220° Southwest  Level FlightAware Approximate
09:24AM 33.8756 -84.3020 220° Southwest  Level Estimated
09:25AM 33.8756 -84.3020 220° Southwest  Level Estimated